Bookmark and Share
Track history (hours):
 

Eviapetrol I

Last reported at 2014-Apr-17 09:33 UTC. Time now 2014-Apr-19 19:45 UTC.
Position N 37°39' E 023°47'.

Length 75 m; draft 4.9 m.

Type: Tanker. MMSI: 240285000.

NotesDate/timePositionNaut miles runAvg speedWind from/ knotsBaromVisibWave heightAir tempDewpointWater temp
2014-Apr-17 09:33N 37°39' E 023°47'8 8.5
2014-Apr-17 08:33N 37°45' E 023°40'9 9.4
2014-Apr-17 07:33N 37°54' E 023°36'9 7.1
2014-Apr-17 06:20N 38°02' E 023°31'0 0.2
2014-Apr-17 05:33N 38°02' E 023°31'1 0.6
2014-Apr-17 04:27N 38°02' E 023°31'0 0.0
2014-Apr-17 03:11N 38°02' E 023°31'0 0.0
2014-Apr-17 02:30N 38°02' E 023°31'0 0.0
2014-Apr-17 01:23N 38°02' E 023°31'0 0.0
2014-Apr-17 00:14N 38°02' E 023°31'0 0.0
2014-Apr-16 22:25N 38°02' E 023°31'0 0.0
2014-Apr-16 21:32N 38°02' E 023°31'0 0.0
2014-Apr-16 20:22N 38°02' E 023°31'0 0.0
2014-Apr-16 19:33N 38°02' E 023°31'0 0.0
2014-Apr-16 18:22N 38°02' E 023°31'0 0.0
2014-Apr-16 17:32N 38°02' E 023°31'0 0.0
2014-Apr-16 16:11N 38°02' E 023°31'0 0.0
2014-Apr-16 15:32N 38°02' E 023°31'0 0.0
2014-Apr-16 14:12N 38°02' E 023°31'0 0.1
2014-Apr-16 13:32N 38°02' E 023°31'6 6.3
2014-Apr-16 12:34N 37°57' E 023°35'5 5.4
2014-Apr-16 11:33N 37°52' E 023°37'8 8.1
2014-Apr-16 10:33N 37°45' E 023°43'17 8.2
2014-Apr-16 08:32N 37°38' E 024°01'8 8.5
2014-Apr-16 07:33N 37°40' E 024°11'21 9.7
2014-Apr-16 05:25N 37°53' E 024°32'95 3.1
2014-Apr-14 22:33N 37°44' E 026°31'1010.0
2014-Apr-14 21:33N 37°35' E 026°37'19 9.3
2014-Apr-14 19:33N 37°20' E 026°51'38 1.7
2014-Apr-13 21:33N 37°01' E 026°09'9 8.6
2014-Apr-13 20:30N 37°06' E 025°60'8 8.6
2014-Apr-13 19:31N 37°10' E 025°51'8 8.6
2014-Apr-13 18:33N 37°12' E 025°40'9 8.8
2014-Apr-13 17:33N 37°14' E 025°30'9 9.2
2014-Apr-13 16:33N 37°16' E 025°18'9 9.2
2014-Apr-13 15:33N 37°18' E 025°07'9 9.3
2014-Apr-13 14:33N 37°21' E 024°56'9 9.2
2014-Apr-13 13:32N 37°24' E 024°45'10 9.5
2014-Apr-13 12:31N 37°28' E 024°34'9 9.5
2014-Apr-13 11:33N 37°30' E 024°22'10 9.1
2014-Apr-13 10:30N 37°32' E 024°11'19 9.1
2014-Apr-13 08:23N 37°38' E 023°48'7 8.5
2014-Apr-13 07:33N 37°43' E 023°41'9 9.1
2014-Apr-13 06:33N 37°52' E 023°37'10 0.5
2014-Apr-12 09:24N 38°01' E 023°33'7 8.6
2014-Apr-12 08:33N 37°55' E 023°37'10 9.7
2014-Apr-12 07:33N 37°46' E 023°42'17 0.5
2014-Apr-10 20:09N 37°28' E 023°41'6 9.5
2014-Apr-10 19:32N 37°33' E 023°36'9 9.4
2014-Apr-10 18:33N 37°39' E 023°28'10 7.3
2014-Apr-10 17:12N 37°45' E 023°18'21 1.8
2014-Apr-10 05:18N 38°01' E 023°35'3 0.9
2014-Apr-10 02:31N 38°02' E 023°31'0 0.0
2014-Apr-10 01:22N 38°02' E 023°31'0 0.0
2014-Apr-09 23:31N 38°02' E 023°31'0 0.0
2014-Apr-09 21:32N 38°02' E 023°31'11 3.5
2014-Apr-09 18:24N 37°52' E 023°26'910.0
2014-Apr-09 17:33N 37°49' E 023°36'10 9.6
2014-Apr-09 16:31N 37°42' E 023°45'18 9.3
2014-Apr-09 14:33N 37°34' E 024°06'14 9.3
2014-Apr-09 13:06N 37°30' E 024°22'5 9.4
2014-Apr-09 12:33N 37°29' E 024°29'9 9.4
2014-Apr-09 11:33N 37°26' E 024°40'10 9.6
2014-Apr-09 10:33N 37°22' E 024°51'9 9.4
2014-Apr-09 09:33N 37°19' E 025°02'9 9.3
2014-Apr-09 08:33N 37°17' E 025°14'9 9.4
2014-Apr-09 07:33N 37°15' E 025°25'9 9.3
2014-Apr-09 06:33N 37°13' E 025°36'9 9.5
2014-Apr-09 05:33N 37°10' E 025°48'10 9.6
2014-Apr-09 04:32N 37°05' E 025°58'9 9.4
2014-Apr-09 03:33N 37°00' E 026°08'28 9.4
2014-Apr-09 00:33N 36°45' E 026°38'  

Dump ship's entire track history

sailing weather and tide predictions

Eviapetrol I — SY5401 — position and weather